Nearby METAR Reports

 

K1V6 - Canon City, Colorado, USA
Distance from station: E 5mi, 8km
Updated: Sat, 18-Jan-2020 7:10pm MST
Clear
Clear
 Wind from calm
Wind: Calm
Temperature: 32°F , 0°C
Dew Point: 9°F , -13°C
Humidity: 37%
Barometer: 30.31 inHg , 1026.4 hPa
Clouds: Clear
Visibility: 10 miles , 16 km
2020/01/19 02:10 K1V6 190210Z AUTO 00000KT 10SM CLR 00/M13 A3031 RMK AO2
KFCS - Fort Carson, Colorado, USA
Distance from station: NE 28mi, 44km
Updated: Sat, 18-Jan-2020 6:58pm MST
Clear
Clear
 Wind from S
Wind: S 3 mph , 6 km/h
Temperature: 30°F , -1°C
Dew Point: 5°F , -15°C
Humidity: 34%
Barometer: 30.30 inHg , 1026.1 hPa
Clouds: Clear
Visibility: 10 miles , 16 km
2020/01/19 01:58 KFCS 190158Z AUTO 18003KT 10SM CLR M01/M15 A3030 RMK AO2 SLP338 T10141149 $
 
KCWN - Cheyenne Mtn, Colorado, USA
Distance from station: NE 28mi, 45km
Updated: Sat, 18-Jan-2020 6:55pm MST
Few Clouds
Few Clouds
 Wind from SSE
Wind: SSE 8 mph , 13 km/h
Temperature: 28°F , -2°C
Wind Chill: 20°F , -7°C
Dew Point: 5°F , -15°C
Humidity: 37%
Barometer: 30.25 inHg , 1024.4 hPa
Clouds: Few Clouds
Visibility: 10 miles , 16 km
Cloud details: Few Clouds 23000 ft
2020/01/19 01:55 KCWN 190155Z 16007KT 10SM FEW230 M02/M15 A3025 RMK AO2A SLP247 T10211150
KCOS - Colorado Springs, Colorado, USA
Distance from station: NE 38mi, 60km
Updated: Sat, 18-Jan-2020 6:54pm MST
Partly cloudy
Partly cloudy
 Wind from ESE
Wind: ESE 7 mph , 11 km/h
Temperature: 27°F , -3°C
Wind Chill: 19°F , -7°C
Dew Point: 5°F , -15°C
Humidity: 39%
Barometer: 30.31 inHg , 1026.4 hPa
Clouds: Partly cloudy
Visibility: 10 miles , 16 km
Cloud details: Partly cloudy 25000 ft
2020/01/19 01:54 KCOS 190154Z 11006KT 10SM SCT250 M03/M15 A3031 RMK AO2 SLP326 T10281150
 
KPUB - Pueblo, Colorado, USA
Distance from station: ESE 39mi, 63km
Updated: Sat, 18-Jan-2020 6:53pm MST
Clear
Clear
 Wind from NE
Wind: NE 8 mph , 13 km/h
Temperature: 30°F , -1°C
Wind Chill: 22°F , -6°C
Dew Point: 9°F , -13°C
Humidity: 40%
Barometer: 30.32 inHg , 1026.8 hPa
Clouds: Clear
Visibility: 10 miles , 16 km
2020/01/19 01:53 KPUB 190153Z 04007KT 10SM CLR M01/M13 A3032 RMK AO2 SLP304 T10111133
KAFF - Usaf Academy/Cos, Colorado, USA
Distance from station: NNE 41mi, 66km
Updated: Sat, 18-Jan-2020 6:58pm MST
Clear
Clear
 Wind from calm
Wind: Calm
Temperature: 25°F , -4°C
Dew Point: 7°F , -14°C
Humidity: 46%
Barometer: 30.28 inHg , 1025.4 hPa
Clouds: Clear
Visibility: 10 miles , 16 km
2020/01/19 01:58 KAFF 190158Z AUTO 00000KT 10SM CLR M04/M14 A3028 RMK AO2 SLP320 T10411140
 
K4BM - Wilkerson Pass, Colorado, USA
Distance from station: NNW 45mi, 72km
Updated: Sat, 18-Jan-2020 7:12pm MST
Clear
Clear
 Wind from WNW
Wind: WNW 8 mph , 13 km/h, Gust: 16 mph , 26 km/h
Temperature: 21°F , -6°C
Wind Chill: 11°F , -12°C
Dew Point: 10°F , -12°C
Humidity: 63%
Barometer: 30.32 inHg , 1026.8 hPa
Clouds: Clear
Visibility: 10 miles , 16 km
2020/01/19 02:12 K4BM 190212Z AUTO 30007G14KT 10SM CLR M06/M12 A3032 RMK AO2
KANK - Salida, Colorado, USA
Distance from station: W 47mi, 75km
Updated: Sat, 18-Jan-2020 7:35pm MST

 Wind from WNW
Wind: WNW 13 mph , 20 km/h, Gust: 22 mph , 35 km/h
Temperature: 32°F , 0°C
Wind Chill: 22°F , -6°C
Dew Point: 18°F , -8°C
Humidity: 55%
Barometer: 30.39 inHg , 1029.1 hPa
Visibility: 10 miles , 16 km
2020/01/19 02:35 KANK 190235Z AUTO 29011G19KT 250V310 10SM 00/M08 A3039 RMK AO1 T00041083
 
KFLY - Co Spngs Meadow, Colorado, USA
Distance from station: NE 48mi, 78km
Updated: Sat, 18-Jan-2020 7:15pm MST
Clear
Clear
 Wind from W
Wind: W 6 mph , 9 km/h
Temperature: 19°F , -7°C
Wind Chill: 11°F , -12°C
Dew Point: 5°F , -15°C
Humidity: 53%
Barometer: 30.30 inHg , 1026.1 hPa
Clouds: Clear
Visibility: 10 miles , 16 km
2020/01/19 02:15 KFLY 190215Z AUTO 27005KT 10SM CLR M07/M15 A3030 RMK AO2 T10701150
KABH - Ellicott-B Afa, Colorado, USA
Distance from station: ENE 53mi, 85km
Updated: Sat, 18-Jan-2020 6:58pm MST
Clear
Clear
 Wind from E
Wind: E 10 mph , 17 km/h
Temperature: 23°F , -5°C
Wind Chill: 13°F , -11°C
Dew Point: 7°F , -14°C
Humidity: 50%
Barometer: 30.32 inHg , 1026.8 hPa
Clouds: Clear
Visibility: 10 miles , 16 km
2020/01/19 01:58 KABH 190158Z AUTO 09009KT 10SM CLR M05/M14 A3032 RMK AO2 SLP343 T10471143
 
KAEJ - Buena Vista, Colorado, USA
Distance from station: WNW 56mi, 90km
Updated: Sat, 18-Jan-2020 7:15pm MST
Clear
Clear
 Wind from WNW
Wind: WNW 7 mph , 11 km/h
Temperature: 28°F , -2°C
Wind Chill: 21°F , -6°C
Dew Point: 16°F , -9°C
Humidity: 59%
Barometer: 30.31 inHg , 1026.4 hPa
Clouds: Clear
Visibility: 10 miles , 16 km
2020/01/19 02:15 KAEJ 190215Z AUTO 29006KT 10SM CLR M02/M09 A3031 RMK AO2 T10221095
K04V - Saguache Muni, Colorado, USA
Distance from station: WSW 58mi, 93km
Updated: Sat, 18-Jan-2020 7:12pm MST
Clear
Clear
 Wind from NNW
Wind: NNW 3 mph , 6 km/h
Temperature: 12°F , -11°C
Dew Point: 7°F , -14°C
Humidity: 79%
Barometer: 30.38 inHg , 1028.8 hPa
Clouds: Clear
Visibility: 10 miles , 16 km
2020/01/19 02:12 K04V 190212Z AUTO 34003KT 10SM CLR M11/M14 A3038 RMK AO2
 
K7BM - Cottonwood Pass, Colorado, USA
Distance from station: WNW 60mi, 96km
Updated: Sat, 18-Jan-2020 7:06pm MST
Clear
Clear
 Wind from NW
Wind: NW 7 mph , 11 km/h
Temperature: 28°F , -2°C
Wind Chill: 21°F , -6°C
Dew Point: 18°F , -8°C
Humidity: 64%
Barometer: 30.31 inHg , 1026.4 hPa
Clouds: Clear
Visibility: 10 miles , 16 km
2020/01/19 02:06 K7BM 190206Z AUTO 32006KT 10SM CLR M02/M08 A3031 RMK AO2
KMNH - Monument/Elbert, Colorado, USA
Distance from station: NNE 61mi, 98km
Updated: Sat, 18-Jan-2020 7:11pm MST
Clear
Clear
 Wind from SW
Wind: SW 6 mph , 9 km/h
Temperature: 23°F , -5°C
Wind Chill: 16°F , -9°C
Dew Point: 10°F , -12°C
Humidity: 58%
Barometer: 30.30 inHg , 1026.1 hPa
Clouds: Clear
Visibility: 10 miles , 16 km
2020/01/19 02:11 KMNH 190211Z AUTO 23005KT 10SM CLR M05/M12 A3030 RMK AO2
 
KMYP - Monarch Pass, Colorado, USA
Distance from station: W 61mi, 98km
Updated: Sat, 18-Jan-2020 7:12pm MST
Overcast
Overcast
 
Temperature: 14°F , -10°C
Dew Point: 10°F , -12°C
Humidity: 85%
Barometer: 30.39 inHg , 1029.1 hPa
Clouds: Overcast
Cloud details: Overcast 200 ft
2020/01/19 02:12 KMYP 190212Z AUTO OVC002 M10/M12 A3039 RMK AO2 PWINO
KALS - Alamosa, Colorado, USA
Distance from station: SSW 79mi, 127km
Updated: Sat, 18-Jan-2020 6:52pm MST
Clear
Clear
 Wind from W
Wind: W 7 mph , 11 km/h
Temperature: 12°F , -11°C
Wind Chill: 1°F , -17°C
Dew Point: 7°F , -14°C
Humidity: 79%
Barometer: 30.38 inHg , 1028.8 hPa
Clouds: Clear
Visibility: 10 miles , 16 km
2020/01/19 01:52 KALS 190152Z AUTO 27006KT 10SM CLR M11/M14 A3038 RMK AO2 SLP402 T11111144 $
 
KAPA - Denver/Arapahoe, Colorado, USA
Distance from station: NNE 79mi, 128km
Updated: Sat, 18-Jan-2020 6:53pm MST
Few Clouds
Few Clouds
 Wind from NNW
Wind: NNW 8 mph , 13 km/h
Temperature: 30°F , -1°C
Wind Chill: 22°F , -6°C
Dew Point: 7°F , -14°C
Humidity: 37%
Barometer: 30.29 inHg , 1025.7 hPa
Clouds: Few Clouds
Visibility: 10 miles , 16 km
Cloud details: Few Clouds 20000 ft
2020/01/19 01:53 KAPA 190153Z 34007KT 10SM FEW200 M01/M14 A3029 RMK AO2 SLP306 T10061139
KRCV - Del Norte, Colorado, USA
Distance from station: SW 81mi, 130km
Updated: Sat, 18-Jan-2020 7:15pm MST
Clear
Clear
 Wind from WSW
Wind: WSW 6 mph , 9 km/h
Temperature: 12°F , -11°C
Wind Chill: 2°F , -17°C
Dew Point: 5°F , -15°C
Humidity: 73%
Barometer: 30.38 inHg , 1028.8 hPa
Clouds: Clear
Visibility: 10 miles , 16 km
2020/01/19 02:15 KRCV 190215Z AUTO 25005KT 10SM CLR M11/M15 A3038 RMK AO2 T11091152
 
KLXV - Leadville, Colorado, USA
Distance from station: NW 81mi, 131km
Updated: Sat, 18-Jan-2020 6:53pm MST
Overcast
Overcast
 Wind from N
Wind: N 9 mph , 15 km/h
Temperature: 16°F , -9°C
Wind Chill: 5°F , -15°C
Dew Point: 9°F , -13°C
Humidity: 73%
Barometer: 30.34 inHg , 1027.4 hPa
Clouds: Overcast
Visibility: 10 miles , 16 km
Cloud details: Overcast 2600 ft
2020/01/19 01:53 KLXV 190153Z AUTO 01008KT 10SM OVC026 M09/M13 A3034 RMK AO2 SLP311 T10941128
KCCU - Red Cliff Pass, Colorado, USA
Distance from station: NW 88mi, 142km
Updated: Sat, 18-Jan-2020 7:12pm MST
Light snow, Overcast
Light snow, Overcast
 Wind from calm
Wind: Calm
Temperature: 18°F , -8°C
Dew Point: 12°F , -11°C
Humidity: 79%
Barometer: 30.34 inHg , 1027.4 hPa
Summary: Light Snow
Clouds: Overcast
Visibility: 10 miles , 16 km
Cloud details: Overcast 500 ft
2020/01/19 02:12 KCCU 190212Z AUTO 00000KT 10SM -SN OVC005 M08/M11 A3034 RMK AO2